createdAt,value
2023-03-29T00:01:06.873Z,12.85
2023-03-29T00:03:40.556Z,12.32
2023-03-29T00:06:22.365Z,8.55
2023-03-29T00:08:54.886Z,11.48
2023-03-29T00:11:27.933Z,12.48
2023-03-29T00:14:00.459Z,17.25
2023-03-29T00:16:33.288Z,13.27
2023-03-29T00:19:05.876Z,8.02
2023-03-29T00:21:38.505Z,14.20
2023-03-29T00:24:10.998Z,11.93
2023-03-29T00:26:43.513Z,13.25
2023-03-29T00:29:15.832Z,13.27
2023-03-29T00:31:54.064Z,10.27
2023-03-29T00:34:31.039Z,13.68
2023-03-29T00:37:04.389Z,8.15
2023-03-29T00:39:37.291Z,15.40
2023-03-29T00:42:17.713Z,15.88
2023-03-29T00:45:12.705Z,13.18
2023-03-29T00:47:57.656Z,10.13
2023-03-29T00:50:48.656Z,13.57
2023-03-29T00:53:46.828Z,12.02
2023-03-29T00:56:40.202Z,18.40
2023-03-29T00:59:21.841Z,10.70
2023-03-29T01:02:00.111Z,7.28
2023-03-29T01:04:46.507Z,18.00
2023-03-29T01:07:24.010Z,10.55
2023-03-29T01:10:09.308Z,13.63
2023-03-29T01:12:48.995Z,11.48
2023-03-29T01:15:29.026Z,11.60
2023-03-29T01:18:02.256Z,12.43
2023-03-29T01:21:03.466Z,10.63
2023-03-29T01:23:46.093Z,11.30
2023-03-29T01:27:02.544Z,13.52
2023-03-29T01:29:37.712Z,8.43
2023-03-29T01:32:18.438Z,18.00
2023-03-29T01:34:59.040Z,17.48
2023-03-29T01:37:39.147Z,14.40
2023-03-29T01:40:12.280Z,9.27
2023-03-29T01:43:11.769Z,15.00
2023-03-29T01:45:48.802Z,13.40
2023-03-29T01:48:48.659Z,12.43
2023-03-29T01:51:38.809Z,11.70
2023-03-29T01:54:35.959Z,20.85
2023-03-29T01:57:10.806Z,15.43
2023-03-29T01:59:45.047Z,11.02
2023-03-29T02:02:19.542Z,14.60
2023-03-29T02:04:54.636Z,12.82
2023-03-29T02:07:37.621Z,9.18
2023-03-29T02:10:11.880Z,11.05
2023-03-29T02:12:44.134Z,13.85
2023-03-29T02:15:20.415Z,12.63
2023-03-29T02:17:53.225Z,17.65
2023-03-29T02:20:40.758Z,15.20
2023-03-29T02:23:39.090Z,10.43
2023-03-29T02:26:11.976Z,17.42
2023-03-29T02:28:44.410Z,15.95
2023-03-29T02:31:44.039Z,12.35
2023-03-29T02:34:19.514Z,13.45
2023-03-29T02:36:59.042Z,16.05
2023-03-29T02:39:34.930Z,10.90
2023-03-29T02:42:08.539Z,14.95
2023-03-29T02:44:41.721Z,23.30
2023-03-29T02:47:24.337Z,16.02
2023-03-29T02:49:57.062Z,14.60
2023-03-29T02:52:36.112Z,17.65
2023-03-29T02:55:15.222Z,17.50
2023-03-29T02:57:47.339Z,16.80
2023-03-29T03:00:20.292Z,24.48
2023-03-29T03:02:52.610Z,16.73
2023-03-29T03:05:25.148Z,18.30
2023-03-29T03:07:58.684Z,17.52
2023-03-29T03:10:33.436Z,17.30
2023-03-29T03:13:05.998Z,27.35
2023-03-29T03:15:42.907Z,26.90
2023-03-29T03:18:16.913Z,19.63
2023-03-29T03:21:02.215Z,22.92
2023-03-29T03:23:34.843Z,24.05
2023-03-29T03:26:07.086Z,18.33
2023-03-29T03:28:39.939Z,23.38
2023-03-29T03:31:14.221Z,21.50
2023-03-29T03:33:46.817Z,25.33
2023-03-29T03:36:19.016Z,22.27
2023-03-29T03:38:51.858Z,22.40
2023-03-29T03:41:27.290Z,25.10
2023-03-29T03:44:00.065Z,24.77
2023-03-29T03:46:32.335Z,25.65
2023-03-29T03:49:04.926Z,20.80
2023-03-29T03:51:37.108Z,30.45
2023-03-29T03:54:09.470Z,26.38
2023-03-29T03:56:41.865Z,23.92
2023-03-29T03:59:14.118Z,23.20
2023-03-29T04:01:46.397Z,17.25
2023-03-29T04:04:19.863Z,24.38
2023-03-29T04:06:53.178Z,29.23
2023-03-29T04:09:26.015Z,26.23
2023-03-29T04:11:59.685Z,24.00
2023-03-29T04:14:32.452Z,25.20
2023-03-29T04:17:06.681Z,27.58
2023-03-29T04:19:38.892Z,24.50
2023-03-29T04:22:11.127Z,21.58
2023-03-29T04:24:43.719Z,24.55
2023-03-29T04:27:15.857Z,25.95
2023-03-29T04:29:49.099Z,23.92
2023-03-29T04:32:21.328Z,20.40
2023-03-29T04:34:53.412Z,24.25
2023-03-29T04:37:25.879Z,15.90
2023-03-29T04:40:00.602Z,21.52
2023-03-29T04:42:34.457Z,21.90
2023-03-29T04:45:07.350Z,16.45
2023-03-29T04:47:42.242Z,20.58
2023-03-29T04:50:14.858Z,17.52
2023-03-29T04:52:47.409Z,18.40
2023-03-29T04:55:19.828Z,16.02
2023-03-29T04:57:55.860Z,20.00
2023-03-29T05:00:28.801Z,16.75
2023-03-29T05:03:01.263Z,14.82
2023-03-29T05:05:39.488Z,13.88
2023-03-29T05:08:12.632Z,14.48
2023-03-29T05:10:45.187Z,20.50
2023-03-29T05:13:20.121Z,17.83
2023-03-29T05:15:52.763Z,14.55
2023-03-29T05:18:25.430Z,17.90
2023-03-29T05:20:58.971Z,16.58
2023-03-29T05:23:32.016Z,13.63
2023-03-29T05:26:05.422Z,14.27
2023-03-29T05:28:37.673Z,13.02
2023-03-29T05:31:10.509Z,17.75
2023-03-29T05:33:43.388Z,14.35
2023-03-29T05:36:19.280Z,14.68
2023-03-29T05:38:51.515Z,11.45
2023-03-29T05:41:24.922Z,14.43
2023-03-29T05:43:57.086Z,13.77
2023-03-29T05:46:29.508Z,18.00
2023-03-29T05:49:02.657Z,10.30
2023-03-29T05:51:35.633Z,13.68
2023-03-29T05:54:07.804Z,12.88
2023-03-29T05:56:47.049Z,17.00
2023-03-29T05:59:19.951Z,10.80
2023-03-29T06:01:52.178Z,12.13
2023-03-29T06:04:24.868Z,14.02
2023-03-29T06:06:57.642Z,11.98
2023-03-29T06:09:29.966Z,16.95
2023-03-29T06:12:04.372Z,11.60
2023-03-29T06:14:37.525Z,12.00
2023-03-29T06:17:09.852Z,15.63
2023-03-29T06:19:42.570Z,13.15
2023-03-29T06:22:15.025Z,9.45
2023-03-29T06:24:47.381Z,12.63
2023-03-29T06:27:19.877Z,12.65
2023-03-29T06:29:52.868Z,22.45
2023-03-29T06:32:25.963Z,11.05
2023-03-29T06:34:58.286Z,10.77
2023-03-29T06:37:32.219Z,11.82
2023-03-29T06:40:09.554Z,14.80
2023-03-29T06:42:46.302Z,11.40
2023-03-29T06:45:19.701Z,10.63
2023-03-29T06:47:53.931Z,9.80
2023-03-29T06:50:26.766Z,12.43
2023-03-29T06:52:58.972Z,8.95
2023-03-29T06:55:32.160Z,11.52
2023-03-29T06:58:04.541Z,10.38
2023-03-29T07:00:39.267Z,15.77
2023-03-29T07:03:14.994Z,12.40
2023-03-29T07:05:48.193Z,12.73
2023-03-29T07:08:21.454Z,14.27
2023-03-29T07:10:54.216Z,14.95
2023-03-29T07:13:26.585Z,10.43
2023-03-29T07:15:58.979Z,11.63
2023-03-29T07:18:31.362Z,10.40
2023-03-29T07:21:04.951Z,10.60
2023-03-29T07:23:37.781Z,8.25
2023-03-29T07:26:11.395Z,11.65
2023-03-29T07:28:43.676Z,12.00
2023-03-29T07:31:25.649Z,15.05
2023-03-29T07:34:00.970Z,14.70
2023-03-29T07:36:34.720Z,13.88
2023-03-29T07:39:09.363Z,13.27
2023-03-29T07:41:41.667Z,10.35
2023-03-29T07:44:14.231Z,9.27
2023-03-29T07:46:46.526Z,9.20
2023-03-29T07:49:21.010Z,10.75
2023-03-29T07:51:55.248Z,12.10
2023-03-29T07:54:27.460Z,14.55
2023-03-29T07:56:59.841Z,10.57
2023-03-29T07:59:32.292Z,16.17
2023-03-29T08:02:04.754Z,10.35
2023-03-29T08:04:37.250Z,11.68
2023-03-29T08:07:14.858Z,9.88
2023-03-29T08:09:48.803Z,9.70
2023-03-29T08:12:23.152Z,11.40
2023-03-29T08:14:56.880Z,12.45
2023-03-29T08:17:29.121Z,11.95
2023-03-29T08:20:01.521Z,10.40
2023-03-29T08:22:34.405Z,13.93
2023-03-29T08:25:08.553Z,18.33
2023-03-29T08:27:46.752Z,9.60
2023-03-29T08:30:19.457Z,14.20
2023-03-29T08:32:55.189Z,10.02
2023-03-29T08:35:27.900Z,9.70
2023-03-29T08:38:00.263Z,9.45
2023-03-29T08:40:32.598Z,28.02
2023-03-29T08:43:26.316Z,14.40
2023-03-29T08:46:20.207Z,10.77
2023-03-29T08:48:57.951Z,13.00
2023-03-29T08:51:57.035Z,13.13
2023-03-29T08:54:40.199Z,13.98
2023-03-29T08:57:35.703Z,16.48
2023-03-29T09:00:18.534Z,15.45
2023-03-29T09:02:54.130Z,18.95
2023-03-29T09:05:45.338Z,16.55
2023-03-29T09:08:19.972Z,15.52
2023-03-29T09:11:07.355Z,12.50
2023-03-29T09:14:21.666Z,14.75
2023-03-29T09:17:16.935Z,14.05
2023-03-29T09:20:07.078Z,25.50
2023-03-29T09:22:57.937Z,30.42
2023-03-29T09:25:53.600Z,14.30
2023-03-29T09:28:37.491Z,22.63
2023-03-29T09:31:21.756Z,17.48
2023-03-29T09:34:09.288Z,13.27
2023-03-29T09:37:13.784Z,17.52
2023-03-29T09:39:46.366Z,20.17
2023-03-29T09:42:19.962Z,18.20
2023-03-29T09:44:57.572Z,15.45
2023-03-29T09:47:55.222Z,20.35
2023-03-29T09:50:37.123Z,16.70
2023-03-29T09:53:14.620Z,20.63
2023-03-29T09:55:50.645Z,17.15
2023-03-29T09:58:28.584Z,17.92
2023-03-29T10:01:10.567Z,19.40
2023-03-29T10:03:49.471Z,26.58
2023-03-29T10:06:25.705Z,15.80
2023-03-29T10:09:01.787Z,24.25
2023-03-29T10:11:37.153Z,16.00
2023-03-29T10:14:43.438Z,16.67
2023-03-29T10:17:29.726Z,18.67
2023-03-29T10:20:13.366Z,16.17
2023-03-29T10:22:59.734Z,17.80
2023-03-29T10:25:34.656Z,16.58
2023-03-29T10:28:17.560Z,18.88
2023-03-29T10:30:55.950Z,18.15
2023-03-29T10:33:36.866Z,22.48
2023-03-29T10:36:13.717Z,21.17
2023-03-29T10:38:46.794Z,18.13
2023-03-29T10:41:22.124Z,18.85
2023-03-29T10:43:55.291Z,25.45
2023-03-29T10:46:44.404Z,19.10
2023-03-29T10:49:25.196Z,23.83
2023-03-29T10:51:57.693Z,23.92
2023-03-29T10:54:31.346Z,24.58
2023-03-29T10:57:10.650Z,26.70
2023-03-29T10:59:42.921Z,20.92
2023-03-29T11:02:16.776Z,27.77
2023-03-29T11:05:07.114Z,25.13
2023-03-29T11:11:11.556Z,23.17
2023-03-29T11:14:00.022Z,21.30
2023-03-29T11:16:52.753Z,20.25
2023-03-29T11:20:03.711Z,23.48
2023-03-29T11:23:07.767Z,22.40
2023-03-29T11:26:27.977Z,18.85
2023-03-29T11:29:57.365Z,15.70
2023-03-29T11:32:34.845Z,17.80
2023-03-29T11:38:54.047Z,17.73
2023-03-29T11:41:36.463Z,17.02
2023-03-29T11:44:30.959Z,20.17
2023-03-29T11:47:11.259Z,14.52
2023-03-29T11:52:32.872Z,17.25
2023-03-29T11:55:29.083Z,19.15
2023-03-29T11:58:15.537Z,19.25
2023-03-29T12:01:02.858Z,15.25
2023-03-29T12:03:54.811Z,18.92
2023-03-29T12:06:53.642Z,18.35
2023-03-29T12:09:51.207Z,16.25
2023-03-29T12:12:55.949Z,16.95
2023-03-29T12:15:37.103Z,16.13
2023-03-29T12:18:17.534Z,25.58
2023-03-29T12:20:59.224Z,14.15
2023-03-29T12:23:33.304Z,15.25
2023-03-29T12:26:30.503Z,13.68
2023-03-29T12:29:34.847Z,13.20
2023-03-29T12:32:17.255Z,15.73
2023-03-29T12:34:52.334Z,18.52
2023-03-29T12:37:49.413Z,16.35
2023-03-29T12:40:26.375Z,19.63
2023-03-29T12:43:07.505Z,15.80
2023-03-29T12:45:51.169Z,19.58
2023-03-29T12:48:30.275Z,15.50
2023-03-29T12:51:13.562Z,20.83
2023-03-29T12:54:09.583Z,16.20
2023-03-29T12:56:52.325Z,25.95
2023-03-29T12:59:43.267Z,16.98
2023-03-29T13:02:15.495Z,16.13
2023-03-29T13:04:57.682Z,15.85
2023-03-29T13:07:45.961Z,15.32
2023-03-29T13:10:42.350Z,18.35
2023-03-29T13:13:24.306Z,16.40
2023-03-29T13:16:08.275Z,18.92
2023-03-29T13:19:08.996Z,18.83
2023-03-29T13:22:18.447Z,23.67
2023-03-29T13:25:58.402Z,18.37
2023-03-29T13:29:34.032Z,17.92
2023-03-29T13:32:51.313Z,20.00
2023-03-29T13:35:50.805Z,15.57
2023-03-29T13:38:29.011Z,16.65
2023-03-29T13:41:07.463Z,16.52
2023-03-29T13:43:54.086Z,17.73
2023-03-29T13:46:41.797Z,14.70
2023-03-29T13:49:21.449Z,19.65
2023-03-29T13:51:54.003Z,18.85
2023-03-29T13:54:38.068Z,15.02
2023-03-29T13:57:25.767Z,16.60
2023-03-29T14:00:14.289Z,16.05
2023-03-29T14:03:04.482Z,17.55
2023-03-29T14:08:23.924Z,16.50
2023-03-29T14:10:56.568Z,16.10
2023-03-29T14:13:30.337Z,20.77
2023-03-29T14:16:10.681Z,20.17
2023-03-29T14:18:45.231Z,13.23
2023-03-29T14:21:21.456Z,19.60
2023-03-29T14:24:03.537Z,15.15
2023-03-29T14:26:36.205Z,16.17
2023-03-29T14:29:12.282Z,15.93
2023-03-29T14:31:44.571Z,16.42
2023-03-29T14:34:19.390Z,14.30
2023-03-29T14:36:54.361Z,12.30
2023-03-29T14:39:26.877Z,15.45
2023-03-29T14:41:59.534Z,15.45
2023-03-29T14:44:35.142Z,16.98
2023-03-29T14:47:10.227Z,10.98
2023-03-29T14:49:42.641Z,12.77
2023-03-29T14:52:15.192Z,16.70
2023-03-29T14:54:52.232Z,12.43
2023-03-29T14:57:29.285Z,12.95
2023-03-29T15:00:17.063Z,13.60
2023-03-29T15:03:05.336Z,15.85
2023-03-29T15:05:41.386Z,14.65
2023-03-29T15:08:38.759Z,15.57
2023-03-29T15:11:26.720Z,19.05
2023-03-29T15:14:52.077Z,15.93
2023-03-29T15:17:51.098Z,17.33
2023-03-29T15:23:55.927Z,15.13
2023-03-29T15:26:36.942Z,14.25
2023-03-29T15:29:23.631Z,18.48
2023-03-29T15:31:59.886Z,20.67
2023-03-29T15:34:33.832Z,15.52
2023-03-29T15:37:07.882Z,20.00
2023-03-29T15:39:44.364Z,13.95
2023-03-29T15:42:17.016Z,16.88
2023-03-29T15:44:49.187Z,13.10
2023-03-29T15:47:21.345Z,14.85
2023-03-29T15:49:53.647Z,10.77
2023-03-29T15:52:26.075Z,13.32
2023-03-29T15:54:58.254Z,14.15
2023-03-29T15:57:30.648Z,15.48
2023-03-29T16:00:07.888Z,16.48
2023-03-29T16:02:41.173Z,18.00
2023-03-29T16:05:13.751Z,17.52
2023-03-29T16:08:10.597Z,14.13
2023-03-29T16:10:44.132Z,18.95
2023-03-29T16:13:16.485Z,14.50
2023-03-29T16:15:48.658Z,17.33
2023-03-29T16:18:20.921Z,14.60
2023-03-29T16:21:13.857Z,22.08
2023-03-29T16:23:47.399Z,15.82
2023-03-29T16:26:19.616Z,19.25
2023-03-29T16:29:03.758Z,17.63
2023-03-29T16:31:36.683Z,16.75
2023-03-29T16:34:13.220Z,23.67
2023-03-29T16:36:46.743Z,18.80
2023-03-29T16:39:18.937Z,21.30
2023-03-29T16:41:51.201Z,16.45
2023-03-29T16:44:24.883Z,17.92
2023-03-29T16:46:58.628Z,21.77
2023-03-29T16:49:31.053Z,16.10
2023-03-29T16:52:03.173Z,17.85
2023-03-29T16:54:35.399Z,17.13
2023-03-29T16:57:07.899Z,16.50
2023-03-29T16:59:42.027Z,14.20
2023-03-29T17:02:14.208Z,21.90
2023-03-29T17:04:46.656Z,19.30
2023-03-29T17:07:18.891Z,24.73
2023-03-29T17:09:51.543Z,18.58
2023-03-29T17:12:24.268Z,21.40
2023-03-29T17:14:56.704Z,15.93
2023-03-29T17:17:29.404Z,16.40
2023-03-29T17:20:01.887Z,16.80
2023-03-29T17:22:34.502Z,19.52
2023-03-29T17:25:08.515Z,21.23
2023-03-29T17:27:40.638Z,18.92
2023-03-29T17:30:13.705Z,21.63
2023-03-29T17:32:46.027Z,22.13
2023-03-29T17:35:18.474Z,18.45
2023-03-29T17:37:50.541Z,20.58
2023-03-29T17:40:23.046Z,20.00
2023-03-29T17:42:55.338Z,22.60
2023-03-29T17:45:27.544Z,22.95
2023-03-29T17:47:59.784Z,23.52
2023-03-29T17:50:41.399Z,21.80
2023-03-29T17:53:13.708Z,23.95
2023-03-29T17:55:46.118Z,25.45
2023-03-29T17:58:19.647Z,22.15
2023-03-29T18:00:52.111Z,22.83
2023-03-29T18:03:24.323Z,25.83
2023-03-29T18:05:56.857Z,25.67
2023-03-29T18:08:29.132Z,28.27
2023-03-29T18:11:19.727Z,26.98
2023-03-29T18:13:53.839Z,27.80
2023-03-29T18:16:26.481Z,33.55
2023-03-29T18:18:58.611Z,30.95
2023-03-29T18:21:30.866Z,36.42
2023-03-29T18:24:34.010Z,30.63
2023-03-29T18:27:06.339Z,33.00
2023-03-29T18:29:38.770Z,32.80
2023-03-29T18:32:11.737Z,36.53
2023-03-29T18:35:08.138Z,35.22
2023-03-29T18:37:43.658Z,39.45
2023-03-29T18:40:20.193Z,34.92
2023-03-29T18:42:52.587Z,32.97
2023-03-29T18:45:40.361Z,36.78
2023-03-29T18:48:13.197Z,32.03
2023-03-29T18:50:46.805Z,36.08
2023-03-29T18:53:19.845Z,42.92
2023-03-29T18:55:52.062Z,35.40
2023-03-29T18:58:24.255Z,35.92
2023-03-29T19:01:03.500Z,38.60
2023-03-29T19:03:36.557Z,37.63
2023-03-29T19:06:09.330Z,37.53
2023-03-29T19:08:42.235Z,37.10
2023-03-29T19:11:38.681Z,42.65
2023-03-29T19:14:13.175Z,45.13
2023-03-29T19:16:45.664Z,37.78
2023-03-29T19:19:19.006Z,43.28
2023-03-29T19:21:51.256Z,39.70
2023-03-29T19:24:24.431Z,43.65
2023-03-29T19:26:57.613Z,43.03
2023-03-29T19:29:29.969Z,49.15
2023-03-29T19:32:02.550Z,46.00
2023-03-29T19:34:34.922Z,49.47
2023-03-29T19:37:07.264Z,47.00
2023-03-29T19:39:41.266Z,52.47
2023-03-29T19:42:13.468Z,48.22
2023-03-29T19:44:45.698Z,53.70
2023-03-29T19:47:18.003Z,53.03
2023-03-29T19:49:50.544Z,48.53
2023-03-29T19:52:24.172Z,50.47
2023-03-29T19:54:58.737Z,55.72
2023-03-29T19:57:34.418Z,48.38
2023-03-29T20:00:08.407Z,55.78
2023-03-29T20:02:42.676Z,58.50
2023-03-29T20:06:06.649Z,49.85
2023-03-29T20:08:39.214Z,56.58
2023-03-29T20:11:13.925Z,58.08
2023-03-29T20:13:46.118Z,61.25
2023-03-29T20:16:19.325Z,64.35
2023-03-29T20:18:54.163Z,54.63
2023-03-29T20:21:26.337Z,52.38
2023-03-29T20:23:58.482Z,51.53
2023-03-29T20:26:30.880Z,56.17
2023-03-29T20:29:07.359Z,56.85
2023-03-29T20:31:39.696Z,51.65
2023-03-29T20:34:12.022Z,55.22
2023-03-29T20:36:45.692Z,51.28
2023-03-29T20:39:19.018Z,52.22
2023-03-29T20:41:51.836Z,54.83
2023-03-29T20:44:28.594Z,54.30
2023-03-29T20:47:04.397Z,54.80
2023-03-29T20:49:37.753Z,56.05
2023-03-29T20:52:16.750Z,55.47
2023-03-29T20:54:49.774Z,49.50
2023-03-29T20:57:22.061Z,53.35
2023-03-29T20:59:54.353Z,51.53
2023-03-29T21:02:29.426Z,52.50
2023-03-29T21:05:02.499Z,56.85
2023-03-29T21:07:35.027Z,54.08
2023-03-29T21:10:07.877Z,59.83
2023-03-29T21:12:41.328Z,62.78
2023-03-29T21:15:17.925Z,66.03
2023-03-29T21:17:50.143Z,68.13
2023-03-29T21:20:22.451Z,64.65
2023-03-29T21:22:54.658Z,64.00
2023-03-29T21:25:26.927Z,58.47
2023-03-29T21:27:59.110Z,58.33
2023-03-29T21:30:32.187Z,57.28
2023-03-29T21:33:04.905Z,55.55
2023-03-29T21:35:37.433Z,59.30
2023-03-29T21:38:09.575Z,54.95
2023-03-29T21:40:41.808Z,51.60
2023-03-29T21:43:14.045Z,58.63
2023-03-29T21:45:50.640Z,57.45
2023-03-29T21:48:22.759Z,59.78
2023-03-29T21:50:55.107Z,58.28
2023-03-29T21:53:27.983Z,60.05
2023-03-29T21:56:00.703Z,57.72
2023-03-29T21:58:32.868Z,58.17
2023-03-29T22:01:07.478Z,61.15
2023-03-29T22:03:39.931Z,58.20
2023-03-29T22:06:14.430Z,59.17
2023-03-29T22:08:46.977Z,52.58
2023-03-29T22:11:19.964Z,55.42
2023-03-29T22:13:52.825Z,56.05
2023-03-29T22:16:26.057Z,56.83
2023-03-29T22:18:58.395Z,49.08
2023-03-29T22:21:31.467Z,55.60
2023-03-29T22:24:04.065Z,51.92
2023-03-29T22:26:36.199Z,50.00
2023-03-29T22:29:08.345Z,61.40
2023-03-29T22:31:40.499Z,59.28
2023-03-29T22:34:12.777Z,56.42
2023-03-29T22:36:50.780Z,50.00
2023-03-29T22:39:23.050Z,54.97
2023-03-29T22:41:55.196Z,59.97
2023-03-29T22:44:27.490Z,52.88
2023-03-29T22:47:00.107Z,50.42
2023-03-29T22:49:32.250Z,46.67
2023-03-29T22:52:05.056Z,48.08
2023-03-29T22:54:37.156Z,46.40
2023-03-29T22:57:09.334Z,48.38
2023-03-29T22:59:41.547Z,45.25
2023-03-29T23:02:13.673Z,45.65
2023-03-29T23:04:46.027Z,44.20
2023-03-29T23:07:18.274Z,47.72
2023-03-29T23:09:50.779Z,44.33
2023-03-29T23:12:28.136Z,49.17
2023-03-29T23:15:00.676Z,43.45
2023-03-29T23:17:33.305Z,50.33
2023-03-29T23:20:06.469Z,49.28
2023-03-29T23:22:39.905Z,47.88
2023-03-29T23:25:12.219Z,42.97
2023-03-29T23:27:44.312Z,53.20
2023-03-29T23:30:18.648Z,41.80
2023-03-29T23:32:54.804Z,47.53
2023-03-29T23:35:27.162Z,39.80
2023-03-29T23:37:59.955Z,50.17
2023-03-29T23:40:33.405Z,45.67
2023-03-29T23:43:05.517Z,39.78
2023-03-29T23:45:37.685Z,47.92
2023-03-29T23:48:09.787Z,45.72
2023-03-29T23:50:46.588Z,47.20
2023-03-29T23:53:20.074Z,47.58
2023-03-29T23:55:52.250Z,42.90
2023-03-29T23:58:25.006Z,43.70
